Flight Track Log - Related Links

Times and Time Zones

All times are in EDT time to prevent confusion due to time zone crossing. See the EJA929 flight status page for this flight to view local times or setup timezone preferences in your user account.

Time Position Orientation Groundspeed Altitude Reporting Facility
EDT Latitude Longitude Course Direction KTS MPH feet Rate Location/Type
Mon 01:57:37 AM 33.9358 -118.4325 262° West 207 238 1,600  Level Los Angeles Center
Mon 01:58:38 AM 33.9244 -118.5261 262° West 264 304 6,100 4,525 Climbing Los Angeles Center
Mon 01:59:39 AM 33.9189 -118.6161 266° West 271 312 10,800 3,344 Climbing Los Angeles Center
Mon 02:00:40 AM 33.9139 -118.7292 267° West 347 399 12,900 1,967 Climbing Los Angeles Center
Mon 02:01:41 AM 33.9094 -118.8439 267° West 377 434 14,800 2,115 Climbing Los Angeles Center
Mon 02:02:42 AM 33.9725 -118.9719 301° West 393 452 17,200 2,066 Climbing Los Angeles Center
Mon 02:03:43 AM 34.0575 -119.0539 321° Northwest 391 450 19,000 1,770 Climbing Los Angeles Center
Mon 02:04:44 AM 34.1428 -119.1383 321° Northwest 394 453 20,800 1,770 Climbing Los Angeles Center
Mon 02:05:45 AM 34.2292 -119.2239 321° Northwest 402 463 22,600 1,721 Climbing Los Angeles Center
Mon 02:06:46 AM 34.3172 -119.3114 321° Northwest 408 470 24,300 1,672 Climbing Los Angeles Center
Mon 02:07:47 AM 34.4081 -119.4019 321° Northwest 420 483 26,000 1,623 Climbing Los Angeles Center
Mon 02:08:48 AM 34.4997 -119.4947 320° Northwest 428 493 27,600 992 Climbing Los Angeles Center
Mon 02:09:48 AM 34.5967 -119.5925 320° Northwest 451 519 28,000 198 Climbing Los Angeles Center
Mon 02:10:49 AM 34.6961 -119.6903 321° Northwest 482 555 28,000  Level Los Angeles Center
Mon 02:11:50 AM 34.8292 -119.8231 321° Northwest 510 587 28,000  Level Los Angeles Center
Mon 02:12:51 AM 34.9411 -119.9364 320° Northwest 522 601 28,000  Level Los Angeles Center
Mon 02:13:52 AM 35.0544 -120.0494 321° Northwest 525 604 28,000  Level Los Angeles Center
Mon 02:14:53 AM 35.1631 -120.1611 320° Northwest 525 604 28,000  Level Los Angeles Center
Mon 02:15:54 AM 35.2733 -120.2739 320° Northwest 523 602 28,000  Level Los Angeles Center
Mon 02:16:55 AM 35.3847 -120.3872 320° Northwest 525 604 28,000  Level Los Angeles Center
Mon 02:17:55 AM 35.4939 -120.5036 319° Northwest 526 605 28,000  Level Los Angeles Center
Mon 02:18:56 AM 35.6044 -120.6158 320° Northwest 519 597 28,000  Level Los Angeles Center
Mon 02:19:55 AM 35.7061 -120.7233 319° Northwest 519 597 28,000  Level Oakland Center
Mon 02:20:56 AM 35.8394 -120.8608 320° Northwest 521 600 28,000 -397 Level Oakland Center
Mon 02:21:56 AM 35.9486 -120.9767 319° Northwest 517 595 27,200 -1,190 Descending Oakland Center
Mon 02:22:57 AM 36.0661 -121.0858 323° Northwest 527 606 25,600 -1,587 Descending Oakland Center
Mon 02:23:57 AM 36.1831 -121.1839 326° Northwest 508 585 24,000 -1,587 Descending Oakland Center
Mon 02:24:58 AM 36.2953 -121.2808 325° Northwest 494 568 22,400 -1,884 Descending Oakland Center
Mon 02:25:58 AM 36.4039 -121.3697 327° Northwest 477 549 20,200 -2,400 Descending Oakland Center
Mon 02:26:58 AM 36.5283 -121.4217 341° North 467 537 17,600 -2,678 Descending Oakland Center
Mon 02:27:59 AM 36.6453 -121.4744 340° North 449 517 14,800 -2,529 Descending Oakland Center
Mon 02:28:59 AM 36.7514 -121.5211 341° North 404 465 12,500 -1,934 Descending Oakland Center
Mon 02:30:00 AM 36.8311 -121.5597 339° North 348 400 10,900 -1,686 Descending Oakland Center
Mon 02:31:00 AM 36.9117 -121.6000 338° Northwest 317 365 9,100 -2,033 Descending Oakland Center
Mon 02:32:01 AM 36.9928 -121.6342 341° North 309 356 6,800 -2,033 Descending Oakland Center
Mon 02:33:01 AM 37.0714 -121.6700 340° North 303 349 5,000 -942 Descending Oakland Center
Mon 02:34:02 AM 37.1514 -121.7056 340° North 257 296 4,900 -595 Descending Oakland Center
Mon 02:35:02 AM 37.2042 -121.7533 324° Northwest 242 278 3,800 -1,050 Descending Oakland Center
Mon 02:36:02 AM 37.2439 -121.8017 316° Northwest 218 251 2,800 -942 Descending Oakland Center
Mon 02:37:03 AM 37.2806 -121.8433 318° Northwest 196 226 1,900 -843 Descending Oakland Center
Mon 02:38:03 AM 37.3153 -121.8797 320° Northwest 174 200 1,100 -744 Descending Oakland Center
Mon 02:39:04 AM 37.3411 -121.9083 319° Northwest 143 165 400 -689 Descending Oakland Center
Mon 02:41:00 AM 37.3500 -121.9167 North  Level FlightAware Approximate
Mon 02:48:00 AM 37.3627 -121.9291 North  Level Estimated

Login

Don't have an account? Register now (free) for customized features, flight alerts, and more!